createdAt,value
2023-04-26T00:00:14.918Z,100.00
2023-04-26T00:02:42.138Z,100.00
2023-04-26T00:05:10.121Z,100.00
2023-04-26T00:07:40.715Z,100.00
2023-04-26T00:10:15.899Z,100.00
2023-04-26T00:12:43.248Z,100.00
2023-04-26T00:15:10.677Z,100.00
2023-04-26T00:17:37.963Z,100.00
2023-04-26T00:20:08.254Z,100.00
2023-04-26T00:22:35.524Z,100.00
2023-04-26T00:33:49.906Z,100.00
2023-04-26T00:36:19.454Z,100.00
2023-04-26T01:02:40.385Z,100.00
2023-04-26T01:13:48.511Z,100.00
2023-04-26T01:20:22.475Z,100.00
2023-04-26T01:22:50.005Z,100.00
2023-04-26T01:25:17.521Z,100.00
2023-04-26T01:27:44.799Z,100.00
2023-04-26T01:30:12.752Z,100.00
2023-04-26T01:32:39.924Z,100.00
2023-04-26T01:35:07.598Z,100.00
2023-04-26T01:37:34.913Z,100.00
2023-04-26T01:46:51.399Z,100.00
2023-04-26T01:49:18.872Z,100.00
2023-04-26T01:51:47.628Z,100.00
2023-04-26T01:54:41.385Z,100.00
2023-04-26T01:57:12.263Z,100.00
2023-04-26T01:59:39.028Z,100.00
2023-04-26T02:02:05.818Z,100.00
2023-04-26T02:04:32.657Z,100.00
2023-04-26T02:06:59.551Z,100.00
2023-04-26T02:09:26.168Z,100.00
2023-04-26T02:11:52.848Z,100.00
2023-04-26T02:14:20.365Z,100.00
2023-04-26T02:16:48.759Z,100.00
2023-04-26T02:19:15.429Z,100.00
2023-04-26T02:21:57.205Z,100.00
2023-04-26T02:24:27.144Z,100.00
2023-04-26T02:26:54.862Z,100.00
2023-04-26T02:29:32.740Z,100.00
2023-04-26T02:32:09.084Z,100.00
2023-04-26T02:34:36.055Z,100.00
2023-04-26T02:37:02.887Z,100.00
2023-04-26T02:39:29.599Z,100.00
2023-04-26T02:41:56.403Z,100.00
2023-04-26T02:44:23.095Z,100.00
2023-04-26T02:46:49.794Z,100.00
2023-04-26T02:49:16.773Z,100.00
2023-04-26T02:51:43.504Z,100.00
2023-04-26T02:54:10.457Z,100.00
2023-04-26T02:56:37.110Z,100.00
2023-04-26T02:59:03.796Z,100.00
2023-04-26T03:01:30.471Z,100.00
2023-04-26T03:03:57.328Z,100.00
2023-04-26T03:06:24.136Z,100.00
2023-04-26T03:08:51.004Z,100.00
2023-04-26T03:11:17.856Z,100.00
2023-04-26T03:13:44.508Z,100.00
2023-04-26T03:16:11.293Z,100.00
2023-04-26T03:18:38.312Z,100.00
2023-04-26T03:21:06.650Z,100.00
2023-04-26T03:23:34.184Z,100.00
2023-04-26T03:26:00.977Z,100.00
2023-04-26T03:28:27.718Z,100.00
2023-04-26T03:30:54.480Z,100.00
2023-04-26T03:33:21.265Z,100.00
2023-04-26T03:35:48.158Z,100.00
2023-04-26T03:38:14.897Z,100.00
2023-04-26T03:40:41.550Z,100.00
2023-04-26T03:43:08.584Z,100.00
2023-04-26T03:45:35.699Z,100.00
2023-04-26T03:48:02.632Z,100.00
2023-04-26T03:50:29.370Z,100.00
2023-04-26T03:52:56.596Z,100.00
2023-04-26T03:55:23.323Z,100.00
2023-04-26T03:57:51.002Z,100.00
2023-04-26T04:00:17.741Z,100.00
2023-04-26T04:02:44.559Z,100.00
2023-04-26T04:05:17.877Z,100.00
2023-04-26T04:07:44.649Z,100.00
2023-04-26T04:10:11.609Z,100.00
2023-04-26T04:12:41.113Z,100.00
2023-04-26T04:15:08.849Z,100.00
2023-04-26T04:17:38.893Z,100.00
2023-04-26T04:20:07.456Z,100.00
2023-04-26T04:22:34.528Z,100.00
2023-04-26T04:25:01.157Z,100.00
2023-04-26T04:27:28.564Z,100.00
2023-04-26T04:29:55.256Z,100.00
2023-04-26T04:32:23.796Z,100.00
2023-04-26T04:34:53.883Z,100.00
2023-04-26T04:37:21.373Z,100.00
2023-04-26T04:39:47.997Z,100.00
2023-04-26T04:42:15.378Z,100.00
2023-04-26T04:44:43.080Z,100.00
2023-04-26T04:47:10.148Z,100.00
2023-04-26T04:49:37.908Z,100.00
2023-04-26T04:52:05.259Z,100.00
2023-04-26T04:54:34.594Z,100.00
2023-04-26T04:57:02.982Z,100.00
2023-04-26T04:59:31.401Z,100.00
2023-04-26T05:01:58.390Z,100.00
2023-04-26T05:04:25.482Z,100.00
2023-04-26T05:06:52.317Z,100.00
2023-04-26T05:09:19.052Z,100.00
2023-04-26T05:11:46.086Z,100.00
2023-04-26T05:14:13.995Z,100.00
2023-04-26T05:16:41.519Z,100.00
2023-04-26T05:19:09.746Z,100.00
2023-04-26T05:21:36.895Z,100.00
2023-04-26T05:24:04.288Z,100.00
2023-04-26T05:26:30.964Z,100.00
2023-04-26T05:29:16.761Z,100.00
2023-04-26T05:32:01.394Z,100.00
2023-04-26T05:34:51.126Z,100.00
2023-04-26T05:37:17.759Z,100.00
2023-04-26T05:39:44.525Z,100.00
2023-04-26T05:42:11.543Z,100.00
2023-04-26T05:44:39.242Z,100.00
2023-04-26T05:47:05.877Z,100.00
2023-04-26T05:49:32.563Z,100.00
2023-04-26T05:52:00.899Z,100.00
2023-04-26T05:54:28.123Z,100.00
2023-04-26T05:56:56.706Z,100.00
2023-04-26T05:59:26.107Z,100.00
2023-04-26T06:01:54.164Z,100.00
2023-04-26T06:04:21.080Z,100.00
2023-04-26T06:07:00.727Z,100.00
2023-04-26T06:09:27.584Z,100.00
2023-04-26T06:11:54.345Z,100.00
2023-04-26T06:14:29.995Z,100.00
2023-04-26T06:17:01.157Z,100.00
2023-04-26T06:19:28.756Z,100.00
2023-04-26T06:21:57.394Z,100.00
2023-04-26T06:24:25.907Z,100.00
2023-04-26T06:26:52.793Z,100.00
2023-04-26T06:29:21.154Z,100.00
2023-04-26T06:31:48.040Z,100.00
2023-04-26T06:34:14.770Z,100.00
2023-04-26T06:36:41.882Z,100.00
2023-04-26T06:39:09.354Z,100.00
2023-04-26T06:41:38.054Z,100.00
2023-04-26T06:44:04.994Z,100.00
2023-04-26T06:46:31.797Z,100.00
2023-04-26T06:48:58.421Z,100.00
2023-04-26T06:51:25.212Z,100.00
2023-04-26T06:53:52.889Z,100.00
2023-04-26T06:56:19.935Z,100.00
2023-04-26T06:59:06.424Z,100.00
2023-04-26T07:01:35.614Z,100.00
2023-04-26T07:04:10.986Z,100.00
2023-04-26T07:06:39.115Z,100.00
2023-04-26T07:09:05.786Z,100.00
2023-04-26T07:11:32.452Z,100.00
2023-04-26T07:13:59.087Z,100.00
2023-04-26T07:16:27.275Z,100.00
2023-04-26T07:18:54.045Z,100.00
2023-04-26T07:21:20.658Z,100.00
2023-04-26T07:23:47.287Z,99.92
2023-04-26T07:26:14.043Z,100.00
2023-04-26T07:28:40.777Z,96.41
2023-04-26T07:31:09.537Z,91.09
2023-04-26T07:33:37.565Z,95.36
2023-04-26T07:36:04.582Z,94.00
2023-04-26T07:38:31.200Z,95.22
2023-04-26T07:40:58.351Z,88.58
2023-04-26T07:43:26.113Z,82.91
2023-04-26T07:45:52.975Z,77.86
2023-04-26T07:48:19.711Z,81.72
2023-04-26T07:50:46.451Z,83.33
2023-04-26T07:53:13.079Z,85.96
2023-04-26T07:55:43.236Z,84.70
2023-04-26T07:58:14.546Z,82.15
2023-04-26T08:00:41.811Z,79.37
2023-04-26T08:03:08.704Z,75.79
2023-04-26T08:05:35.699Z,77.69
2023-04-26T08:08:02.844Z,74.63
2023-04-26T08:10:30.088Z,76.16
2023-04-26T08:12:57.468Z,75.79
2023-04-26T08:15:24.278Z,76.78
2023-04-26T08:17:53.403Z,77.56
2023-04-26T08:20:20.892Z,75.67
2023-04-26T08:22:47.567Z,76.77
2023-04-26T08:25:15.685Z,77.45
2023-04-26T08:27:43.293Z,75.75
2023-04-26T08:30:10.163Z,74.88
2023-04-26T08:32:36.887Z,75.72
2023-04-26T08:35:03.722Z,78.30
2023-04-26T08:37:30.551Z,79.29
2023-04-26T08:39:57.395Z,75.86
2023-04-26T08:42:27.731Z,72.30
2023-04-26T08:44:54.882Z,70.37
2023-04-26T08:47:50.391Z,73.72
2023-04-26T08:50:21.237Z,72.69
2023-04-26T08:52:50.873Z,73.31
2023-04-26T08:55:20.043Z,71.69
2023-04-26T08:57:48.387Z,69.17
2023-04-26T09:00:16.949Z,69.12
2023-04-26T09:02:49.282Z,68.93
2023-04-26T09:05:16.118Z,66.52
2023-04-26T09:07:45.521Z,68.30
2023-04-26T09:10:13.348Z,71.44
2023-04-26T09:12:40.883Z,71.09
2023-04-26T09:15:08.334Z,70.81
2023-04-26T09:17:37.620Z,68.74
2023-04-26T09:20:28.631Z,70.65
2023-04-26T09:23:08.084Z,69.71
2023-04-26T09:25:35.408Z,67.95
2023-04-26T09:28:04.023Z,67.31
2023-04-26T09:30:37.993Z,66.46
2023-04-26T09:33:06.766Z,66.52
2023-04-26T09:35:41.803Z,65.33
2023-04-26T09:38:17.625Z,66.95
2023-04-26T09:40:48.870Z,62.79
2023-04-26T09:43:17.707Z,63.21
2023-04-26T09:45:52.863Z,65.86
2023-04-26T09:48:25.708Z,66.13
2023-04-26T09:50:54.664Z,67.02
2023-04-26T09:53:37.288Z,70.71
2023-04-26T09:56:19.949Z,68.30
2023-04-26T09:58:46.533Z,64.22
2023-04-26T10:01:18.915Z,61.78
2023-04-26T10:03:46.861Z,61.45
2023-04-26T10:06:13.881Z,56.01
2023-04-26T10:08:40.496Z,58.35
2023-04-26T10:11:11.696Z,56.88
2023-04-26T10:13:39.717Z,56.23
2023-04-26T10:16:06.946Z,57.67
2023-04-26T10:18:33.979Z,60.94
2023-04-26T10:21:06.466Z,63.65
2023-04-26T10:23:33.863Z,63.63
2023-04-26T10:26:00.486Z,64.02
2023-04-26T10:28:48.383Z,65.58
2023-04-26T10:31:15.052Z,65.66
2023-04-26T10:33:41.682Z,62.50
2023-04-26T10:36:10.227Z,63.25
2023-04-26T10:38:39.063Z,64.04
2023-04-26T10:41:30.280Z,65.53
2023-04-26T10:43:57.877Z,64.80
2023-04-26T10:46:39.481Z,62.60
2023-04-26T10:49:17.107Z,64.06
2023-04-26T10:52:09.295Z,62.18
2023-04-26T10:55:06.702Z,63.14
2023-04-26T10:57:52.535Z,63.78
2023-04-26T11:00:21.151Z,57.23
2023-04-26T11:02:57.523Z,56.79
2023-04-26T11:05:41.059Z,55.93
2023-04-26T11:08:25.045Z,56.72
2023-04-26T11:10:57.474Z,56.88
2023-04-26T11:13:24.209Z,56.74
2023-04-26T11:15:59.800Z,55.86
2023-04-26T11:18:26.478Z,56.33
2023-04-26T11:20:53.194Z,57.72
2023-04-26T11:23:20.068Z,57.80
2023-04-26T11:25:46.985Z,61.45
2023-04-26T11:28:13.880Z,59.56
2023-04-26T11:30:41.055Z,57.41
2023-04-26T11:33:18.000Z,54.72
2023-04-26T11:35:46.379Z,54.01
2023-04-26T11:38:13.690Z,51.63
2023-04-26T11:40:41.793Z,53.06
2023-04-26T11:43:09.954Z,52.57
2023-04-26T11:45:38.108Z,55.73
2023-04-26T11:48:08.301Z,57.71
2023-04-26T11:50:37.118Z,59.31
2023-04-26T11:53:05.822Z,59.63
2023-04-26T11:55:36.853Z,58.87
2023-04-26T11:58:12.218Z,56.99
2023-04-26T12:00:56.314Z,55.20
2023-04-26T12:03:23.431Z,52.63
2023-04-26T12:05:57.039Z,53.59
2023-04-26T12:08:30.110Z,53.78
2023-04-26T12:11:03.282Z,51.33
2023-04-26T12:13:30.490Z,52.52
2023-04-26T12:15:57.124Z,49.16
2023-04-26T12:18:30.358Z,50.89
2023-04-26T12:20:59.392Z,48.75
2023-04-26T12:23:26.670Z,48.39
2023-04-26T12:26:00.591Z,50.21
2023-04-26T12:28:27.226Z,47.32
2023-04-26T12:30:53.810Z,47.38
2023-04-26T12:33:23.106Z,48.90
2023-04-26T12:35:50.967Z,46.63
2023-04-26T12:38:19.046Z,45.19
2023-04-26T12:40:46.814Z,45.52
2023-04-26T12:43:13.763Z,47.25
2023-04-26T12:45:40.372Z,48.26
2023-04-26T12:48:07.050Z,49.19
2023-04-26T12:50:33.731Z,49.84
2023-04-26T12:53:00.506Z,48.30
2023-04-26T12:55:27.162Z,49.93
2023-04-26T12:57:54.327Z,49.79
2023-04-26T13:00:21.800Z,50.14
2023-04-26T13:02:48.615Z,48.37
2023-04-26T13:05:15.852Z,49.48
2023-04-26T13:07:44.387Z,50.42
2023-04-26T13:10:12.910Z,49.65
2023-04-26T13:12:40.419Z,49.64
2023-04-26T13:15:08.095Z,48.85
2023-04-26T13:17:37.057Z,49.03
2023-04-26T13:20:06.005Z,47.09
2023-04-26T13:22:32.769Z,48.34
2023-04-26T13:24:59.587Z,49.43
2023-04-26T13:27:28.449Z,50.09
2023-04-26T13:29:57.081Z,50.52
2023-04-26T13:32:23.941Z,49.95
2023-04-26T13:34:51.798Z,51.39
2023-04-26T13:37:21.436Z,53.21
2023-04-26T13:39:48.452Z,53.32
2023-04-26T13:42:16.527Z,53.66
2023-04-26T13:44:43.630Z,54.96
2023-04-26T13:47:10.512Z,55.31
2023-04-26T13:49:38.063Z,54.36
2023-04-26T13:52:04.850Z,53.79
2023-04-26T13:54:31.853Z,55.02
2023-04-26T13:56:58.801Z,55.16
2023-04-26T13:59:58.018Z,53.33
2023-04-26T14:14:54.214Z,54.06
2023-04-26T14:17:20.872Z,55.65
2023-04-26T14:19:47.507Z,55.45
2023-04-26T14:22:36.021Z,54.56
2023-04-26T14:25:03.467Z,54.32
2023-04-26T14:27:30.088Z,52.37
2023-04-26T14:40:53.479Z,54.47
2023-04-26T14:43:22.697Z,54.59
2023-04-26T14:45:57.470Z,53.39
2023-04-26T14:51:23.948Z,56.10
2023-04-26T14:53:54.502Z,54.23
2023-04-26T15:07:20.973Z,53.48
2023-04-26T15:09:55.251Z,50.96
2023-04-26T15:12:21.924Z,51.48
2023-04-26T15:14:48.568Z,51.62
2023-04-26T15:17:15.208Z,51.10
2023-04-26T15:23:28.678Z,51.62
2023-04-26T15:26:03.937Z,52.71
2023-04-26T15:28:41.688Z,52.42
2023-04-26T15:31:34.886Z,52.18
2023-04-26T15:50:01.491Z,53.49
2023-04-26T15:53:14.443Z,53.71
2023-04-26T16:01:55.851Z,53.76
2023-04-26T16:17:54.415Z,54.40
2023-04-26T16:24:33.319Z,55.30
2023-04-26T16:27:27.957Z,57.03
2023-04-26T16:30:00.973Z,56.21
2023-04-26T17:12:05.013Z,61.37
2023-04-26T17:14:42.474Z,62.16
2023-04-26T17:17:20.190Z,62.78
2023-04-26T17:20:02.465Z,64.59
2023-04-26T17:38:42.296Z,70.06
2023-04-26T17:41:23.314Z,70.57
2023-04-26T17:44:12.765Z,70.50
2023-04-26T18:07:34.227Z,70.85
2023-04-26T18:12:26.987Z,71.94
2023-04-26T18:33:31.882Z,73.25
2023-04-26T18:36:58.609Z,73.77
2023-04-26T18:40:55.405Z,73.90
2023-04-26T18:43:35.671Z,76.07
2023-04-26T18:46:17.910Z,75.38
2023-04-26T19:09:53.081Z,74.75
2023-04-26T19:25:42.687Z,71.80
2023-04-26T19:28:50.836Z,68.47
2023-04-26T19:31:35.912Z,68.69
2023-04-26T19:45:43.790Z,70.60
2023-04-26T19:48:15.439Z,69.38
2023-04-26T19:50:49.695Z,70.79
2023-04-26T19:54:11.019Z,71.70
2023-04-26T19:57:34.309Z,73.98
2023-04-26T20:00:10.119Z,73.95
2023-04-26T20:19:19.358Z,77.91
2023-04-26T20:21:48.708Z,77.16
2023-04-26T20:24:16.864Z,77.64
2023-04-26T20:26:45.209Z,77.53
2023-04-26T20:29:13.268Z,77.37
2023-04-26T20:31:41.460Z,77.76
2023-04-26T20:34:19.950Z,77.96
2023-04-26T20:36:54.868Z,78.26
2023-04-26T20:51:42.740Z,79.22
2023-04-26T20:54:46.416Z,78.41
2023-04-26T20:57:17.633Z,77.67
2023-04-26T20:59:46.686Z,78.38
2023-04-26T21:02:17.625Z,79.18
2023-04-26T21:04:47.522Z,78.34
2023-04-26T21:07:59.495Z,78.49
2023-04-26T21:10:32.485Z,78.22
2023-04-26T21:13:10.906Z,78.26
2023-04-26T21:15:46.249Z,79.07
2023-04-26T21:18:14.926Z,79.02
2023-04-26T21:20:42.531Z,78.50
2023-04-26T21:25:52.682Z,79.17
2023-04-26T21:28:28.430Z,79.72
2023-04-26T21:31:07.158Z,79.32
2023-04-26T21:33:55.890Z,79.36
2023-04-26T21:36:23.831Z,79.87
2023-04-26T21:38:56.525Z,80.05
2023-04-26T21:44:09.577Z,79.48
2023-04-26T21:46:38.494Z,80.58
2023-04-26T22:09:17.966Z,78.31
2023-04-26T22:11:50.060Z,77.62
2023-04-26T22:14:29.395Z,77.50
2023-04-26T22:51:22.235Z,79.19
2023-04-26T22:53:50.281Z,80.21
2023-04-26T22:57:14.240Z,82.03
2023-04-26T22:59:43.367Z,82.83
2023-04-26T23:02:19.310Z,83.83
2023-04-26T23:04:48.310Z,84.65
2023-04-26T23:07:18.125Z,84.23
2023-04-26T23:09:45.968Z,85.23
2023-04-26T23:12:41.774Z,83.49
2023-04-26T23:15:13.555Z,80.10
2023-04-26T23:17:45.268Z,78.77
2023-04-26T23:20:13.211Z,77.58
2023-04-26T23:22:44.042Z,76.86
2023-04-26T23:25:13.213Z,76.13
2023-04-26T23:27:45.136Z,75.58
2023-04-26T23:30:40.040Z,76.38
2023-04-26T23:33:07.827Z,78.11
2023-04-26T23:35:41.777Z,81.98
2023-04-26T23:38:11.101Z,85.68
2023-04-26T23:40:40.839Z,88.41
2023-04-26T23:43:42.784Z,89.83
2023-04-26T23:46:34.867Z,90.49
2023-04-26T23:49:32.917Z,91.10
2023-04-26T23:59:00.570Z,94.02
